sensor_id;sensor_type;location;lat;lon;timestamp;pressure;altitude;pressure_sealevel;temperature;humidity
68889;BME280;55930;47.412;8.790;2023-10-08T00:02:13;95570.78;;;11.82;98.71
68889;BME280;55930;47.412;8.790;2023-10-08T00:05:42;95571.19;;;11.71;100.00
68889;BME280;55930;47.412;8.790;2023-10-08T00:09:02;95562.66;;;11.95;100.00
68889;BME280;55930;47.412;8.790;2023-10-08T00:12:26;95565.34;;;11.95;96.78
68889;BME280;55930;47.412;8.790;2023-10-08T00:15:49;95559.41;;;12.00;93.23
68889;BME280;55930;47.412;8.790;2023-10-08T00:19:12;95561.63;;;11.92;93.20
68889;BME280;55930;47.412;8.790;2023-10-08T00:22:35;95569.38;;;11.59;95.54
68889;BME280;55930;47.412;8.790;2023-10-08T00:25:56;95568.47;;;11.53;97.51
68889;BME280;55930;47.412;8.790;2023-10-08T00:29:18;95574.09;;;11.55;97.59
68889;BME280;55930;47.412;8.790;2023-10-08T00:32:41;95573.06;;;11.52;97.80
68889;BME280;55930;47.412;8.790;2023-10-08T00:36:02;95574.81;;;11.46;99.38
68889;BME280;55930;47.412;8.790;2023-10-08T00:39:37;95579.09;;;11.53;98.11
68889;BME280;55930;47.412;8.790;2023-10-08T00:43:00;95579.59;;;11.21;100.00
68889;BME280;55930;47.412;8.790;2023-10-08T00:46:24;95580.94;;;10.94;100.00
68889;BME280;55930;47.412;8.790;2023-10-08T00:49:46;95577.69;;;10.90;100.00
68889;BME280;55930;47.412;8.790;2023-10-08T00:53:06;95572.22;;;10.63;100.00
68889;BME280;55930;47.412;8.790;2023-10-08T00:56:37;95574.59;;;10.61;100.00
68889;BME280;55930;47.412;8.790;2023-10-08T01:00:07;95571.25;;;10.69;100.00
68889;BME280;55930;47.412;8.790;2023-10-08T01:03:38;95568.56;;;10.91;100.00
68889;BME280;55930;47.412;8.790;2023-10-08T01:07:04;95568.25;;;10.89;100.00
68889;BME280;55930;47.412;8.790;2023-10-08T01:10:39;95572.63;;;10.83;100.00
68889;BME280;55930;47.412;8.790;2023-10-08T01:14:07;95571.72;;;10.77;100.00
68889;BME280;55930;47.412;8.790;2023-10-08T01:17:27;95569.25;;;10.83;100.00
68889;BME280;55930;47.412;8.790;2023-10-08T01:20:54;95552.44;;;10.86;100.00
68889;BME280;55930;47.412;8.790;2023-10-08T01:24:16;95552.53;;;10.73;100.00
68889;BME280;55930;47.412;8.790;2023-10-08T01:27:37;95547.53;;;10.75;100.00
68889;BME280;55930;47.412;8.790;2023-10-08T01:31:00;95547.63;;;10.93;100.00
68889;BME280;55930;47.412;8.790;2023-10-08T01:34:23;95548.97;;;10.98;100.00
68889;BME280;55930;47.412;8.790;2023-10-08T01:37:56;95544.22;;;10.93;100.00
68889;BME280;55930;47.412;8.790;2023-10-08T01:41:21;95544.63;;;10.82;100.00
68889;BME280;55930;47.412;8.790;2023-10-08T01:44:49;95544.56;;;10.73;100.00
68889;BME280;55930;47.412;8.790;2023-10-08T01:48:15;95543.97;;;10.69;100.00
68889;BME280;55930;47.412;8.790;2023-10-08T01:51:48;95544.81;;;10.66;100.00
68889;BME280;55930;47.412;8.790;2023-10-08T01:55:09;95542.75;;;10.61;100.00
68889;BME280;55930;47.412;8.790;2023-10-08T01:58:34;95536.88;;;10.66;100.00
68889;BME280;55930;47.412;8.790;2023-10-08T02:01:55;95535.38;;;10.65;100.00
68889;BME280;55930;47.412;8.790;2023-10-08T02:05:19;95533.84;;;10.77;100.00
68889;BME280;55930;47.412;8.790;2023-10-08T02:08:40;95528.59;;;10.95;100.00
68889;BME280;55930;47.412;8.790;2023-10-08T02:12:08;95527.19;;;11.12;100.00
68889;BME280;55930;47.412;8.790;2023-10-08T02:15:28;95523.50;;;11.19;100.00
68889;BME280;55930;47.412;8.790;2023-10-08T02:18:49;95516.44;;;11.16;100.00
68889;BME280;55930;47.412;8.790;2023-10-08T02:22:11;95510.84;;;11.23;100.00
68889;BME280;55930;47.412;8.790;2023-10-08T02:25:32;95505.19;;;11.11;100.00
68889;BME280;55930;47.412;8.790;2023-10-08T02:28:55;95502.28;;;11.28;100.00
68889;BME280;55930;47.412;8.790;2023-10-08T02:32:18;95502.16;;;11.31;100.00
68889;BME280;55930;47.412;8.790;2023-10-08T02:35:39;95500.97;;;11.41;100.00
68889;BME280;55930;47.412;8.790;2023-10-08T02:39:02;95506.28;;;11.41;100.00
68889;BME280;55930;47.412;8.790;2023-10-08T02:42:26;95497.59;;;11.32;100.00
68889;BME280;55930;47.412;8.790;2023-10-08T02:45:46;95506.44;;;11.29;100.00
68889;BME280;55930;47.412;8.790;2023-10-08T02:49:09;95507.31;;;11.35;100.00
68889;BME280;55930;47.412;8.790;2023-10-08T02:52:31;95516.13;;;11.13;100.00
68889;BME280;55930;47.412;8.790;2023-10-08T02:55:54;95523.34;;;11.13;100.00
68889;BME280;55930;47.412;8.790;2023-10-08T02:59:14;95520.81;;;11.00;100.00
68889;BME280;55930;47.412;8.790;2023-10-08T03:02:37;95524.59;;;10.90;100.00
68889;BME280;55930;47.412;8.790;2023-10-08T03:05:59;95523.91;;;10.99;100.00
68889;BME280;55930;47.412;8.790;2023-10-08T03:09:21;95519.25;;;10.81;100.00
68889;BME280;55930;47.412;8.790;2023-10-08T03:12:45;95520.72;;;10.82;100.00
68889;BME280;55930;47.412;8.790;2023-10-08T03:16:14;95521.53;;;10.70;100.00
68889;BME280;55930;47.412;8.790;2023-10-08T03:19:34;95525.59;;;10.53;100.00
68889;BME280;55930;47.412;8.790;2023-10-08T03:22:56;95515.38;;;10.73;100.00
68889;BME280;55930;47.412;8.790;2023-10-08T03:26:21;95517.38;;;10.60;100.00
68889;BME280;55930;47.412;8.790;2023-10-08T03:29:54;95514.47;;;10.67;100.00
68889;BME280;55930;47.412;8.790;2023-10-08T03:33:18;95513.94;;;10.50;100.00
68889;BME280;55930;47.412;8.790;2023-10-08T03:36:45;95518.31;;;10.44;100.00
68889;BME280;55930;47.412;8.790;2023-10-08T03:40:06;95521.25;;;10.46;100.00
68889;BME280;55930;47.412;8.790;2023-10-08T03:43:45;95522.88;;;10.44;100.00
68889;BME280;55930;47.412;8.790;2023-10-08T03:47:26;95523.41;;;10.29;100.00
68889;BME280;55930;47.412;8.790;2023-10-08T03:50:46;95522.19;;;10.30;100.00
68889;BME280;55930;47.412;8.790;2023-10-08T03:54:16;95520.97;;;10.22;100.00
68889;BME280;55930;47.412;8.790;2023-10-08T03:57:41;95526.06;;;10.17;100.00
68889;BME280;55930;47.412;8.790;2023-10-08T04:01:04;95518.63;;;10.24;100.00
68889;BME280;55930;47.412;8.790;2023-10-08T04:04:29;95516.13;;;10.08;100.00
68889;BME280;55930;47.412;8.790;2023-10-08T04:08:09;95520.38;;;10.18;100.00
68889;BME280;55930;47.412;8.790;2023-10-08T04:11:59;95517.38;;;10.16;100.00
68889;BME280;55930;47.412;8.790;2023-10-08T04:15:30;95513.97;;;10.28;100.00
68889;BME280;55930;47.412;8.790;2023-10-08T04:18:51;95507.28;;;10.24;100.00
68889;BME280;55930;47.412;8.790;2023-10-08T04:22:15;95504.53;;;10.27;100.00
68889;BME280;55930;47.412;8.790;2023-10-08T04:25:38;95500.63;;;10.19;100.00
68889;BME280;55930;47.412;8.790;2023-10-08T04:28:59;95511.66;;;10.18;100.00
68889;BME280;55930;47.412;8.790;2023-10-08T04:32:25;95509.06;;;10.27;100.00
68889;BME280;55930;47.412;8.790;2023-10-08T04:35:45;95506.25;;;10.21;100.00
68889;BME280;55930;47.412;8.790;2023-10-08T04:39:11;95507.25;;;10.46;100.00
68889;BME280;55930;47.412;8.790;2023-10-08T04:42:36;95496.63;;;10.37;100.00
68889;BME280;55930;47.412;8.790;2023-10-08T04:46:00;95503.63;;;10.30;100.00
68889;BME280;55930;47.412;8.790;2023-10-08T04:49:26;95503.34;;;10.28;100.00
68889;BME280;55930;47.412;8.790;2023-10-08T04:52:46;95506.00;;;10.28;100.00
68889;BME280;55930;47.412;8.790;2023-10-08T04:56:18;95492.13;;;10.24;100.00
68889;BME280;55930;47.412;8.790;2023-10-08T04:59:38;95498.34;;;10.30;100.00
68889;BME280;55930;47.412;8.790;2023-10-08T05:02:59;95500.06;;;10.24;100.00
68889;BME280;55930;47.412;8.790;2023-10-08T05:06:32;95506.00;;;10.28;100.00
68889;BME280;55930;47.412;8.790;2023-10-08T05:09:55;95514.63;;;10.20;100.00
68889;BME280;55930;47.412;8.790;2023-10-08T05:13:27;95509.19;;;10.23;100.00
68889;BME280;55930;47.412;8.790;2023-10-08T05:16:56;95511.72;;;10.27;100.00
68889;BME280;55930;47.412;8.790;2023-10-08T05:20:42;95517.31;;;10.51;100.00
68889;BME280;55930;47.412;8.790;2023-10-08T05:24:08;95510.06;;;10.42;100.00
68889;BME280;55930;47.412;8.790;2023-10-08T05:27:29;95511.66;;;10.61;100.00
68889;BME280;55930;47.412;8.790;2023-10-08T05:31:16;95512.63;;;10.86;100.00
68889;BME280;55930;47.412;8.790;2023-10-08T05:34:36;95500.00;;;11.57;100.00
68889;BME280;55930;47.412;8.790;2023-10-08T05:38:03;95507.22;;;11.57;100.00
68889;BME280;55930;47.412;8.790;2023-10-08T05:41:34;95507.09;;;11.69;100.00
68889;BME280;55930;47.412;8.790;2023-10-08T05:45:11;95514.94;;;11.91;100.00
68889;BME280;55930;47.412;8.790;2023-10-08T05:48:32;95519.81;;;11.93;100.00
68889;BME280;55930;47.412;8.790;2023-10-08T05:51:58;95521.56;;;12.50;96.03
68889;BME280;55930;47.412;8.790;2023-10-08T05:55:25;95514.84;;;12.64;93.70
68889;BME280;55930;47.412;8.790;2023-10-08T05:58:46;95520.38;;;12.93;94.35
68889;BME280;55930;47.412;8.790;2023-10-08T06:05:52;95527.13;;;13.13;96.73
68889;BME280;55930;47.412;8.790;2023-10-08T06:09:27;95529.63;;;13.49;93.80
68889;BME280;55930;47.412;8.790;2023-10-08T06:13:19;95530.50;;;13.79;86.19
68889;BME280;55930;47.412;8.790;2023-10-08T06:16:52;95527.38;;;13.81;88.97
68889;BME280;55930;47.412;8.790;2023-10-08T06:20:34;95534.41;;;13.69;92.80
68889;BME280;55930;47.412;8.790;2023-10-08T06:23:55;95532.31;;;14.11;91.77
68889;BME280;55930;47.412;8.790;2023-10-08T06:27:16;95533.69;;;14.22;89.43
68889;BME280;55930;47.412;8.790;2023-10-08T06:30:37;95531.97;;;14.18;89.01
68889;BME280;55930;47.412;8.790;2023-10-08T06:34:01;95523.09;;;14.66;83.06
68889;BME280;55930;47.412;8.790;2023-10-08T06:37:23;95526.03;;;14.82;81.37
68889;BME280;55930;47.412;8.790;2023-10-08T06:40:44;95528.59;;;15.06;79.79
68889;BME280;55930;47.412;8.790;2023-10-08T06:44:04;95541.41;;;15.37;77.48
68889;BME280;55930;47.412;8.790;2023-10-08T06:47:34;95537.22;;;15.51;78.84
68889;BME280;55930;47.412;8.790;2023-10-08T06:50:55;95543.38;;;15.72;79.38
68889;BME280;55930;47.412;8.790;2023-10-08T06:54:18;95542.94;;;16.19;76.16
68889;BME280;55930;47.412;8.790;2023-10-08T06:57:39;95546.69;;;16.79;73.05
68889;BME280;55930;47.412;8.790;2023-10-08T07:01:01;95556.72;;;18.65;67.58
68889;BME280;55930;47.412;8.790;2023-10-08T07:04:27;95553.41;;;22.53;55.07
68889;BME280;55930;47.412;8.790;2023-10-08T07:07:47;95535.97;;;25.04;45.15
68889;BME280;55930;47.412;8.790;2023-10-08T07:11:07;95545.66;;;23.13;46.57
68889;BME280;55930;47.412;8.790;2023-10-08T07:14:31;95551.56;;;20.25;55.15
68889;BME280;55930;47.412;8.790;2023-10-08T07:17:53;95549.84;;;21.34;51.38
68889;BME280;55930;47.412;8.790;2023-10-08T07:21:14;95560.56;;;23.33;47.70
68889;BME280;55930;47.412;8.790;2023-10-08T07:24:35;95556.69;;;23.15;47.43
68889;BME280;55930;47.412;8.790;2023-10-08T07:27:55;95558.34;;;21.93;55.19
68889;BME280;55930;47.412;8.790;2023-10-08T07:31:20;95560.22;;;21.55;54.04
68889;BME280;55930;47.412;8.790;2023-10-08T07:34:43;95555.03;;;21.57;52.05
68889;BME280;55930;47.412;8.790;2023-10-08T07:38:04;95559.69;;;24.23;46.29
68889;BME280;55930;47.412;8.790;2023-10-08T07:41:29;95560.59;;;25.55;44.41
68889;BME280;55930;47.412;8.790;2023-10-08T07:44:50;95558.25;;;26.16;42.57
68889;BME280;55930;47.412;8.790;2023-10-08T07:48:14;95567.97;;;26.04;45.81
68889;BME280;55930;47.412;8.790;2023-10-08T07:51:35;95563.38;;;26.27;41.22
68889;BME280;55930;47.412;8.790;2023-10-08T07:54:57;95572.44;;;23.62;48.41
68889;BME280;55930;47.412;8.790;2023-10-08T07:58:18;95578.03;;;23.51;46.76
68889;BME280;55930;47.412;8.790;2023-10-08T08:01:38;95572.78;;;24.58;43.66
68889;BME280;55930;47.412;8.790;2023-10-08T08:05:01;95575.38;;;27.97;38.28
68889;BME280;55930;47.412;8.790;2023-10-08T08:08:23;95580.13;;;28.92;38.45
68889;BME280;55930;47.412;8.790;2023-10-08T08:11:47;95585.72;;;29.26;35.53
68889;BME280;55930;47.412;8.790;2023-10-08T08:15:08;95575.81;;;29.06;35.12
68889;BME280;55930;47.412;8.790;2023-10-08T08:18:38;95579.19;;;29.47;34.60
68889;BME280;55930;47.412;8.790;2023-10-08T08:21:58;95570.38;;;29.31;33.48
68889;BME280;55930;47.412;8.790;2023-10-08T08:25:24;95577.03;;;29.45;35.07
68889;BME280;55930;47.412;8.790;2023-10-08T08:28:55;95584.19;;;28.36;34.64
68889;BME280;55930;47.412;8.790;2023-10-08T08:32:20;95580.78;;;26.24;38.72
68889;BME280;55930;47.412;8.790;2023-10-08T08:35:41;95586.22;;;26.68;37.84
68889;BME280;55930;47.412;8.790;2023-10-08T08:39:04;95589.63;;;27.73;36.64
68889;BME280;55930;47.412;8.790;2023-10-08T08:42:26;95582.72;;;29.40;33.36
68889;BME280;55930;47.412;8.790;2023-10-08T08:45:49;95582.63;;;30.85;31.81
68889;BME280;55930;47.412;8.790;2023-10-08T08:49:10;95583.75;;;31.45;31.98
68889;BME280;55930;47.412;8.790;2023-10-08T08:52:31;95588.28;;;31.60;30.52
68889;BME280;55930;47.412;8.790;2023-10-08T08:55:53;95580.59;;;31.49;30.52
68889;BME280;55930;47.412;8.790;2023-10-08T08:59:15;95581.59;;;32.00;31.01
68889;BME280;55930;47.412;8.790;2023-10-08T09:02:38;95582.88;;;32.56;29.52
68889;BME280;55930;47.412;8.790;2023-10-08T09:05:59;95585.03;;;32.10;29.97
68889;BME280;55930;47.412;8.790;2023-10-08T09:09:22;95583.53;;;33.88;28.91
68889;BME280;55930;47.412;8.790;2023-10-08T09:12:42;95579.84;;;33.12;27.35
68889;BME280;55930;47.412;8.790;2023-10-08T09:16:14;95575.16;;;31.12;28.87
68889;BME280;55930;47.412;8.790;2023-10-08T09:19:38;95584.59;;;33.21;28.68
68889;BME280;55930;47.412;8.790;2023-10-08T09:26:31;95591.94;;;27.00;35.62
68889;BME280;55930;47.412;8.790;2023-10-08T09:29:54;95589.75;;;26.91;37.32
68889;BME280;55930;47.412;8.790;2023-10-08T09:33:15;95586.66;;;28.57;33.58
68889;BME280;55930;47.412;8.790;2023-10-08T09:36:38;95581.56;;;32.57;28.76
68889;BME280;55930;47.412;8.790;2023-10-08T09:40:04;95590.66;;;33.29;27.67
68889;BME280;55930;47.412;8.790;2023-10-08T09:43:29;95589.50;;;31.86;28.41
68889;BME280;55930;47.412;8.790;2023-10-08T09:50:30;95588.16;;;32.93;28.42
68889;BME280;55930;47.412;8.790;2023-10-08T09:54:03;95590.34;;;32.94;29.41
68889;BME280;55930;47.412;8.790;2023-10-08T09:57:25;95582.34;;;32.98;28.23
68889;BME280;55930;47.412;8.790;2023-10-08T10:00:47;95582.47;;;33.10;27.07
68889;BME280;55930;47.412;8.790;2023-10-08T10:04:09;95573.44;;;34.02;27.01
68889;BME280;55930;47.412;8.790;2023-10-08T10:07:30;95576.09;;;32.48;27.58
68889;BME280;55930;47.412;8.790;2023-10-08T10:10:58;95581.50;;;34.31;25.71
68889;BME280;55930;47.412;8.790;2023-10-08T10:14:22;95583.75;;;34.23;25.08
68889;BME280;55930;47.412;8.790;2023-10-08T10:17:43;95582.78;;;35.54;25.67
68889;BME280;55930;47.412;8.790;2023-10-08T10:24:36;95589.03;;;34.09;25.79
68889;BME280;55930;47.412;8.790;2023-10-08T10:31:24;95586.50;;;36.19;23.26
68889;BME280;55930;47.412;8.790;2023-10-08T10:34:47;95586.59;;;34.58;24.35
68889;BME280;55930;47.412;8.790;2023-10-08T10:38:12;95581.09;;;34.04;25.38
68889;BME280;55930;47.412;8.790;2023-10-08T10:41:34;95586.59;;;31.65;27.65
68889;BME280;55930;47.412;8.790;2023-10-08T10:44:55;95592.72;;;31.92;29.29
68889;BME280;55930;47.412;8.790;2023-10-08T10:48:16;95585.19;;;31.37;30.40
68889;BME280;55930;47.412;8.790;2023-10-08T10:51:40;95583.56;;;30.70;30.68
68889;BME280;55930;47.412;8.790;2023-10-08T10:55:05;95592.47;;;30.27;31.02
68889;BME280;55930;47.412;8.790;2023-10-08T10:58:38;95583.28;;;34.05;27.05
68889;BME280;55930;47.412;8.790;2023-10-08T11:02:00;95583.59;;;34.99;25.20
68889;BME280;55930;47.412;8.790;2023-10-08T11:05:40;95578.44;;;35.16;25.35
68889;BME280;55930;47.412;8.790;2023-10-08T11:09:08;95575.59;;;36.21;24.68
68889;BME280;55930;47.412;8.790;2023-10-08T11:12:35;95575.00;;;35.51;23.78
68889;BME280;55930;47.412;8.790;2023-10-08T11:16:08;95580.09;;;35.68;24.57
68889;BME280;55930;47.412;8.790;2023-10-08T11:19:33;95578.97;;;36.70;23.35
68889;BME280;55930;47.412;8.790;2023-10-08T11:22:53;95573.75;;;36.76;23.20
68889;BME280;55930;47.412;8.790;2023-10-08T11:26:14;95567.00;;;35.92;24.64
68889;BME280;55930;47.412;8.790;2023-10-08T11:29:36;95576.84;;;36.57;22.90
68889;BME280;55930;47.412;8.790;2023-10-08T11:32:58;95571.44;;;35.85;23.35
68889;BME280;55930;47.412;8.790;2023-10-08T11:36:20;95568.75;;;37.26;22.87
68889;BME280;55930;47.412;8.790;2023-10-08T11:39:53;95566.72;;;37.67;21.91
68889;BME280;55930;47.412;8.790;2023-10-08T11:43:18;95553.66;;;37.15;22.70
68889;BME280;55930;47.412;8.790;2023-10-08T11:46:38;95545.88;;;38.68;22.86
68889;BME280;55930;47.412;8.790;2023-10-08T11:49:58;95552.56;;;36.81;22.80
68889;BME280;55930;47.412;8.790;2023-10-08T11:53:31;95545.44;;;37.03;23.64
68889;BME280;55930;47.412;8.790;2023-10-08T11:56:56;95539.44;;;35.57;23.97
68889;BME280;55930;47.412;8.790;2023-10-08T12:00:17;95542.41;;;36.10;23.69
68889;BME280;55930;47.412;8.790;2023-10-08T12:03:40;95535.88;;;35.19;24.80
68889;BME280;55930;47.412;8.790;2023-10-08T12:07:01;95533.22;;;34.30;26.22
68889;BME280;55930;47.412;8.790;2023-10-08T12:10:27;95529.38;;;33.60;26.95
68889;BME280;55930;47.412;8.790;2023-10-08T12:13:54;95533.34;;;35.95;26.40
68889;BME280;55930;47.412;8.790;2023-10-08T12:17:15;95535.47;;;36.85;22.97
68889;BME280;55930;47.412;8.790;2023-10-08T12:20:38;95528.81;;;37.03;23.08
68889;BME280;55930;47.412;8.790;2023-10-08T12:24:01;95518.28;;;36.61;24.79
68889;BME280;55930;47.412;8.790;2023-10-08T12:27:25;95524.16;;;36.67;23.43
68889;BME280;55930;47.412;8.790;2023-10-08T12:30:45;95520.50;;;35.16;25.34
68889;BME280;55930;47.412;8.790;2023-10-08T12:34:06;95514.19;;;37.28;23.85
68889;BME280;55930;47.412;8.790;2023-10-08T12:37:27;95508.94;;;37.21;23.43
68889;BME280;55930;47.412;8.790;2023-10-08T12:40:51;95510.75;;;36.89;24.03
68889;BME280;55930;47.412;8.790;2023-10-08T12:44:14;95514.03;;;36.71;24.34
68889;BME280;55930;47.412;8.790;2023-10-08T12:47:35;95509.03;;;36.56;24.58
68889;BME280;55930;47.412;8.790;2023-10-08T12:50:56;95510.41;;;37.35;23.06
68889;BME280;55930;47.412;8.790;2023-10-08T12:54:17;95503.09;;;37.42;23.48
68889;BME280;55930;47.412;8.790;2023-10-08T12:57:42;95506.25;;;32.91;28.17
68889;BME280;55930;47.412;8.790;2023-10-08T13:01:05;95506.06;;;30.87;30.08
68889;BME280;55930;47.412;8.790;2023-10-08T13:04:27;95504.09;;;29.99;32.84
68889;BME280;55930;47.412;8.790;2023-10-08T13:07:48;95494.34;;;29.89;31.31
68889;BME280;55930;47.412;8.790;2023-10-08T13:11:08;95503.28;;;29.30;34.08
68889;BME280;55930;47.412;8.790;2023-10-08T13:14:28;95498.22;;;29.51;34.02
68889;BME280;55930;47.412;8.790;2023-10-08T13:17:49;95496.06;;;31.09;30.29
68889;BME280;55930;47.412;8.790;2023-10-08T13:21:10;95496.53;;;31.25;30.74
68889;BME280;55930;47.412;8.790;2023-10-08T13:24:30;95492.25;;;32.87;29.81
68889;BME280;55930;47.412;8.790;2023-10-08T13:27:51;95487.81;;;34.43;27.77
68889;BME280;55930;47.412;8.790;2023-10-08T13:31:12;95483.22;;;32.56;29.74
68889;BME280;55930;47.412;8.790;2023-10-08T13:34:32;95484.56;;;31.20;33.06
68889;BME280;55930;47.412;8.790;2023-10-08T13:37:55;95480.03;;;30.69;33.46
68889;BME280;55930;47.412;8.790;2023-10-08T13:41:16;95481.22;;;31.31;34.53
68889;BME280;55930;47.412;8.790;2023-10-08T13:44:36;95474.22;;;32.24;29.39
68889;BME280;55930;47.412;8.790;2023-10-08T13:47:58;95474.72;;;32.42;27.15
68889;BME280;55930;47.412;8.790;2023-10-08T13:51:22;95474.19;;;32.05;27.91
68889;BME280;55930;47.412;8.790;2023-10-08T13:54:48;95473.94;;;31.82;27.27
68889;BME280;55930;47.412;8.790;2023-10-08T13:58:12;95469.50;;;31.21;35.76
68889;BME280;55930;47.412;8.790;2023-10-08T14:01:33;95472.81;;;29.16;33.87
68889;BME280;55930;47.412;8.790;2023-10-08T14:04:54;95462.81;;;29.53;34.79
68889;BME280;55930;47.412;8.790;2023-10-08T14:08:15;95462.53;;;28.75;39.23
68889;BME280;55930;47.412;8.790;2023-10-08T14:11:38;95467.59;;;28.29;42.13
68889;BME280;55930;47.412;8.790;2023-10-08T14:14:59;95471.84;;;27.59;46.17
68889;BME280;55930;47.412;8.790;2023-10-08T14:18:19;95468.78;;;28.03;46.47
68889;BME280;55930;47.412;8.790;2023-10-08T14:21:47;95466.50;;;28.89;43.78
68889;BME280;55930;47.412;8.790;2023-10-08T14:25:14;95461.72;;;29.31;43.47
68889;BME280;55930;47.412;8.790;2023-10-08T14:28:37;95457.34;;;29.36;39.66
68889;BME280;55930;47.412;8.790;2023-10-08T14:32:00;95462.22;;;29.38;39.88
68889;BME280;55930;47.412;8.790;2023-10-08T14:35:21;95463.50;;;29.19;40.43
68889;BME280;55930;47.412;8.790;2023-10-08T14:39:00;95462.50;;;29.07;40.53
68889;BME280;55930;47.412;8.790;2023-10-08T14:42:39;95461.22;;;28.26;38.64
68889;BME280;55930;47.412;8.790;2023-10-08T14:46:18;95455.34;;;27.34;44.51
68889;BME280;55930;47.412;8.790;2023-10-08T14:49:40;95455.69;;;27.31;46.89
68889;BME280;55930;47.412;8.790;2023-10-08T14:53:02;95455.53;;;27.29;45.70
68889;BME280;55930;47.412;8.790;2023-10-08T14:56:25;95456.97;;;27.45;44.93
68889;BME280;55930;47.412;8.790;2023-10-08T14:59:48;95460.97;;;26.83;49.84
68889;BME280;55930;47.412;8.790;2023-10-08T15:03:09;95457.84;;;26.34;51.67
68889;BME280;55930;47.412;8.790;2023-10-08T15:06:32;95451.31;;;26.37;50.88
68889;BME280;55930;47.412;8.790;2023-10-08T15:09:54;95450.72;;;26.23;51.98
68889;BME280;55930;47.412;8.790;2023-10-08T15:13:17;95444.84;;;25.96;54.49
68889;BME280;55930;47.412;8.790;2023-10-08T15:16:38;95443.44;;;25.59;54.57
68889;BME280;55930;47.412;8.790;2023-10-08T15:19:59;95440.53;;;25.65;54.67
68889;BME280;55930;47.412;8.790;2023-10-08T15:23:20;95433.84;;;25.30;55.35
68889;BME280;55930;47.412;8.790;2023-10-08T15:26:45;95437.81;;;24.79;57.25
68889;BME280;55930;47.412;8.790;2023-10-08T15:30:08;95436.56;;;24.39;56.68
68889;BME280;55930;47.412;8.790;2023-10-08T15:33:32;95436.19;;;23.75;61.92
68889;BME280;55930;47.412;8.790;2023-10-08T15:36:53;95438.94;;;23.35;63.57
68889;BME280;55930;47.412;8.790;2023-10-08T15:40:13;95432.97;;;23.23;62.80
68889;BME280;55930;47.412;8.790;2023-10-08T15:43:40;95441.19;;;22.92;63.53
68889;BME280;55930;47.412;8.790;2023-10-08T15:47:01;95446.47;;;22.84;63.63
68889;BME280;55930;47.412;8.790;2023-10-08T15:50:24;95446.16;;;22.74;64.47
68889;BME280;55930;47.412;8.790;2023-10-08T15:53:45;95453.25;;;22.27;66.97
68889;BME280;55930;47.412;8.790;2023-10-08T15:57:05;95449.88;;;21.64;71.22
68889;BME280;55930;47.412;8.790;2023-10-08T16:00:27;95449.69;;;21.38;73.18
68889;BME280;55930;47.412;8.790;2023-10-08T16:03:47;95448.28;;;21.07;76.43
68889;BME280;55930;47.412;8.790;2023-10-08T16:07:08;95449.94;;;21.10;76.42
68889;BME280;55930;47.412;8.790;2023-10-08T16:10:31;95456.97;;;20.94;75.89
68889;BME280;55930;47.412;8.790;2023-10-08T16:13:51;95450.66;;;20.56;79.20
68889;BME280;55930;47.412;8.790;2023-10-08T16:17:12;95445.59;;;20.47;80.00
68889;BME280;55930;47.412;8.790;2023-10-08T16:20:35;95459.06;;;20.06;82.59
68889;BME280;55930;47.412;8.790;2023-10-08T16:23:56;95461.88;;;19.84;85.95
68889;BME280;55930;47.412;8.790;2023-10-08T16:27:18;95461.25;;;19.56;87.26
68889;BME280;55930;47.412;8.790;2023-10-08T16:30:39;95455.66;;;19.42;89.49
68889;BME280;55930;47.412;8.790;2023-10-08T16:33:59;95463.00;;;19.36;90.07
68889;BME280;55930;47.412;8.790;2023-10-08T16:37:20;95466.94;;;19.30;90.61
68889;BME280;55930;47.412;8.790;2023-10-08T16:40:41;95463.00;;;19.53;86.84
68889;BME280;55930;47.412;8.790;2023-10-08T16:44:02;95469.69;;;18.96;91.33
68889;BME280;55930;47.412;8.790;2023-10-08T16:47:22;95469.19;;;19.03;90.29
68889;BME280;55930;47.412;8.790;2023-10-08T16:50:43;95477.78;;;18.63;93.33
68889;BME280;55930;47.412;8.790;2023-10-08T16:54:06;95482.63;;;18.48;95.21
68889;BME280;55930;47.412;8.790;2023-10-08T16:57:34;95472.34;;;18.24;97.15
68889;BME280;55930;47.412;8.790;2023-10-08T17:00:54;95478.16;;;18.06;98.88
68889;BME280;55930;47.412;8.790;2023-10-08T17:04:14;95478.09;;;17.78;100.00
68889;BME280;55930;47.412;8.790;2023-10-08T17:07:35;95477.78;;;17.65;100.00
68889;BME280;55930;47.412;8.790;2023-10-08T17:10:55;95477.47;;;17.51;100.00
68889;BME280;55930;47.412;8.790;2023-10-08T17:14:16;95477.09;;;17.27;100.00
68889;BME280;55930;47.412;8.790;2023-10-08T17:17:38;95488.25;;;17.14;100.00
68889;BME280;55930;47.412;8.790;2023-10-08T17:20:59;95480.97;;;17.26;100.00
68889;BME280;55930;47.412;8.790;2023-10-08T17:24:19;95485.78;;;17.16;100.00
68889;BME280;55930;47.412;8.790;2023-10-08T17:27:39;95488.59;;;16.96;100.00
68889;BME280;55930;47.412;8.790;2023-10-08T17:31:06;95490.94;;;16.83;100.00
68889;BME280;55930;47.412;8.790;2023-10-08T17:34:27;95491.47;;;16.87;100.00
68889;BME280;55930;47.412;8.790;2023-10-08T17:37:47;95495.00;;;16.73;100.00
68889;BME280;55930;47.412;8.790;2023-10-08T17:41:08;95500.59;;;16.43;100.00
68889;BME280;55930;47.412;8.790;2023-10-08T17:44:29;95505.03;;;16.26;100.00
68889;BME280;55930;47.412;8.790;2023-10-08T17:47:51;95494.66;;;16.34;100.00
68889;BME280;55930;47.412;8.790;2023-10-08T17:51:12;95498.16;;;16.45;100.00
68889;BME280;55930;47.412;8.790;2023-10-08T17:54:38;95505.63;;;16.36;100.00
68889;BME280;55930;47.412;8.790;2023-10-08T17:58:02;95504.19;;;16.40;100.00
68889;BME280;55930;47.412;8.790;2023-10-08T18:01:23;95499.75;;;16.32;100.00
68889;BME280;55930;47.412;8.790;2023-10-08T18:04:43;95507.13;;;16.17;100.00
68889;BME280;55930;47.412;8.790;2023-10-08T18:08:05;95506.41;;;16.16;100.00
68889;BME280;55930;47.412;8.790;2023-10-08T18:11:27;95502.38;;;16.06;100.00
68889;BME280;55930;47.412;8.790;2023-10-08T18:14:51;95500.41;;;16.01;100.00